createdAt,value
2017-10-14T00:10:14.512Z,6.37
2017-10-14T00:12:42.067Z,6.20
2017-10-14T00:15:10.442Z,6.17
2017-10-14T00:17:38.001Z,6.17
2017-10-14T00:20:05.567Z,6.30
2017-10-14T00:22:33.916Z,6.63
2017-10-14T00:25:02.256Z,6.40
2017-10-14T00:27:30.759Z,7.00
2017-10-14T00:29:58.313Z,6.00
2017-10-14T00:32:25.909Z,6.90
2017-10-14T00:34:54.231Z,7.00
2017-10-14T00:37:21.818Z,6.80
2017-10-14T00:39:49.793Z,6.80
2017-10-14T00:42:17.341Z,7.57
2017-10-14T00:44:45.007Z,6.70
2017-10-14T00:47:12.563Z,6.30
2017-10-14T00:49:40.157Z,5.80
2017-10-14T00:52:07.715Z,5.80
2017-10-14T00:54:36.437Z,6.23
2017-10-14T00:57:04.019Z,5.90
2017-10-14T00:59:32.339Z,6.80
2017-10-14T01:02:00.354Z,6.30
2017-10-14T01:04:27.933Z,7.20
2017-10-14T01:06:55.557Z,7.50
2017-10-14T01:09:23.115Z,7.80
2017-10-14T01:11:51.422Z,8.17
2017-10-14T01:14:19.009Z,11.60
2017-10-14T01:16:46.569Z,7.67
2017-10-14T01:19:14.195Z,8.23
2017-10-14T01:21:41.745Z,8.30
2017-10-14T01:24:10.442Z,8.20
2017-10-14T01:26:38.039Z,6.93
2017-10-14T01:29:06.274Z,8.07
2017-10-14T01:31:35.374Z,9.10
2017-10-14T01:34:02.922Z,8.70
2017-10-14T01:36:30.513Z,7.20
2017-10-14T01:38:58.074Z,6.70
2017-10-14T01:41:25.629Z,6.77
2017-10-14T01:43:53.606Z,7.50
2017-10-14T01:46:21.162Z,7.33
2017-10-14T01:48:49.167Z,7.30
2017-10-14T01:51:16.725Z,7.37
2017-10-14T01:53:45.044Z,7.87
2017-10-14T01:56:12.688Z,7.60
2017-10-14T01:58:40.647Z,7.20
2017-10-14T02:01:09.030Z,7.73
2017-10-14T02:03:37.346Z,8.33
2017-10-14T02:06:04.943Z,7.20
2017-10-14T02:08:32.530Z,7.60
2017-10-14T02:11:00.906Z,8.57
2017-10-14T02:13:28.518Z,9.43
2017-10-14T02:15:56.096Z,10.83
2017-10-14T02:18:23.717Z,10.73
2017-10-14T02:20:51.314Z,11.40
2017-10-14T02:23:18.874Z,13.93
2017-10-14T02:25:46.471Z,14.60
2017-10-14T02:28:14.358Z,14.93
2017-10-14T02:30:42.675Z,17.10
2017-10-14T02:33:10.664Z,17.80
2017-10-14T02:35:38.302Z,20.30
2017-10-14T02:38:06.309Z,17.63
2017-10-14T02:40:34.275Z,15.80
2017-10-14T02:43:01.824Z,13.93
2017-10-14T02:45:29.428Z,15.20
2017-10-14T02:47:57.749Z,14.73
2017-10-14T02:50:25.419Z,15.87
2017-10-14T02:52:52.975Z,16.03
2017-10-14T02:55:20.536Z,15.73
2017-10-14T02:57:48.546Z,14.03
2017-10-14T03:00:16.139Z,14.50
2017-10-14T03:02:43.765Z,13.90
2017-10-14T03:05:11.730Z,13.57
2017-10-14T03:07:40.119Z,15.00
2017-10-14T03:10:08.849Z,15.50
2017-10-14T03:12:36.416Z,16.70
2017-10-14T03:15:04.010Z,18.10
2017-10-14T03:17:32.356Z,17.87
2017-10-14T03:20:00.728Z,17.00
2017-10-14T03:22:28.377Z,14.80
2017-10-14T03:24:55.933Z,15.37
2017-10-14T03:27:23.543Z,15.90
2017-10-14T03:29:51.102Z,16.37
2017-10-14T03:32:18.658Z,15.30
2017-10-14T03:34:46.272Z,15.47
2017-10-14T03:37:13.835Z,14.03
2017-10-14T03:39:42.803Z,15.20
2017-10-14T03:42:10.361Z,15.00
2017-10-14T03:44:37.921Z,15.17
2017-10-14T03:47:05.515Z,14.70
2017-10-14T03:49:33.477Z,15.43
2017-10-14T03:52:01.126Z,13.60
2017-10-14T03:54:30.033Z,13.60
2017-10-14T03:56:57.577Z,14.60
2017-10-14T03:59:25.215Z,13.57
2017-10-14T04:01:52.779Z,13.50
2017-10-14T04:04:21.902Z,13.63
2017-10-14T04:06:49.490Z,13.63
2017-10-14T04:09:17.449Z,15.40
2017-10-14T04:11:45.805Z,15.37
2017-10-14T04:14:13.355Z,15.43
2017-10-14T04:16:42.326Z,14.93
2017-10-14T04:19:11.026Z,16.90
2017-10-14T04:21:39.342Z,15.23
2017-10-14T04:24:06.940Z,16.77
2017-10-14T04:26:36.240Z,15.97
2017-10-14T04:29:07.104Z,15.20
2017-10-14T04:31:35.058Z,14.10
2017-10-14T04:34:03.026Z,13.40
2017-10-14T04:36:31.422Z,13.57
2017-10-14T04:38:58.971Z,13.50
2017-10-14T04:41:26.769Z,12.43
2017-10-14T04:43:54.348Z,12.60
2017-10-14T04:46:21.927Z,13.37
2017-10-14T04:48:49.925Z,13.10
2017-10-14T04:51:18.238Z,12.40
2017-10-14T04:53:47.368Z,12.93
2017-10-14T04:56:15.683Z,13.73
2017-10-14T04:58:43.267Z,12.13
2017-10-14T05:01:10.861Z,10.43
2017-10-14T05:03:39.779Z,10.83
2017-10-14T05:06:07.381Z,10.80
2017-10-14T05:08:34.934Z,9.57
2017-10-14T05:11:03.829Z,9.30
2017-10-14T05:13:31.416Z,10.10
2017-10-14T05:15:58.975Z,10.70
2017-10-14T05:18:27.286Z,10.93
2017-10-14T05:20:55.242Z,11.50
2017-10-14T05:23:22.797Z,12.70
2017-10-14T05:25:50.396Z,13.70
2017-10-14T05:28:19.452Z,13.20
2017-10-14T05:30:48.401Z,14.00
2017-10-14T05:33:15.953Z,14.00
2017-10-14T05:35:43.598Z,13.87
2017-10-14T05:38:11.198Z,13.67
2017-10-14T05:40:38.775Z,13.37
2017-10-14T05:43:06.356Z,13.83
2017-10-14T05:45:34.691Z,12.67
2017-10-14T05:48:02.289Z,13.10
2017-10-14T05:50:31.370Z,12.77
2017-10-14T05:52:58.931Z,13.13
2017-10-14T05:55:26.525Z,14.33
2017-10-14T05:57:54.178Z,12.73
2017-10-14T06:00:21.788Z,12.30
2017-10-14T06:02:49.649Z,12.40
2017-10-14T06:05:17.222Z,12.40
2017-10-14T06:07:45.336Z,12.20
2017-10-14T06:10:13.653Z,14.63
2017-10-14T06:12:42.587Z,14.33
2017-10-14T06:15:10.158Z,15.60
2017-10-14T06:17:38.495Z,15.33
2017-10-14T06:20:07.442Z,14.40
2017-10-14T06:22:36.482Z,14.80
2017-10-14T06:25:04.083Z,15.43
2017-10-14T06:27:31.643Z,15.97
2017-10-14T06:30:00.327Z,14.90
2017-10-14T06:32:27.923Z,15.43
2017-10-14T06:34:55.874Z,15.80
2017-10-14T06:37:23.478Z,17.77
2017-10-14T06:39:51.031Z,16.93
2017-10-14T06:42:18.592Z,17.70
2017-10-14T06:44:46.187Z,17.17
2017-10-14T06:47:14.150Z,18.10
2017-10-14T06:49:41.772Z,18.83
2017-10-14T06:52:09.339Z,21.53
2017-10-14T06:54:36.895Z,20.37
2017-10-14T06:57:04.487Z,20.20
2017-10-14T06:59:32.760Z,20.00
2017-10-14T07:02:01.142Z,22.10
2017-10-14T07:04:28.694Z,20.30
2017-10-14T07:06:56.253Z,22.40
2017-10-14T07:09:24.226Z,20.50
2017-10-14T07:11:51.781Z,20.40
2017-10-14T07:14:20.531Z,22.70
2017-10-14T07:16:48.093Z,17.10
2017-10-14T07:19:15.648Z,20.77
2017-10-14T07:21:43.237Z,18.80
2017-10-14T07:24:11.183Z,22.40
2017-10-14T07:26:38.770Z,19.77
2017-10-14T07:29:06.332Z,23.27
2017-10-14T07:31:35.687Z,21.33
2017-10-14T07:34:04.785Z,20.43
2017-10-14T07:36:32.348Z,20.67
2017-10-14T07:39:00.355Z,20.37
2017-10-14T07:41:27.914Z,20.67
2017-10-14T07:43:55.874Z,19.80
2017-10-14T07:46:23.474Z,22.07
2017-10-14T07:48:51.791Z,22.07
2017-10-14T07:51:19.411Z,20.03
2017-10-14T07:53:47.708Z,21.00
2017-10-14T07:56:15.762Z,21.13
2017-10-14T08:01:18.887Z,20.50
2017-10-14T08:03:46.442Z,20.00
2017-10-14T08:06:14.039Z,21.70
2017-10-14T08:08:42.071Z,20.50
2017-10-14T08:11:10.391Z,21.60
2017-10-14T08:13:38.002Z,20.60
2017-10-14T08:16:05.570Z,26.30
2017-10-14T08:18:33.123Z,21.23
2017-10-14T08:21:01.495Z,22.57
2017-10-14T08:23:29.442Z,21.53
2017-10-14T08:25:57.820Z,22.47
2017-10-14T08:28:25.401Z,22.03
2017-10-14T08:30:52.963Z,23.13
2017-10-14T08:33:21.687Z,23.57
2017-10-14T08:35:49.243Z,21.50
2017-10-14T08:38:16.863Z,24.37
2017-10-14T08:40:45.181Z,23.20
2017-10-14T08:43:13.125Z,24.40
2017-10-14T08:45:41.153Z,24.10
2017-10-14T08:48:08.711Z,20.10
2017-10-14T08:50:37.780Z,23.00
2017-10-14T08:53:06.834Z,23.43
2017-10-14T08:55:35.175Z,22.37
2017-10-14T08:58:04.102Z,24.27
2017-10-14T09:00:32.053Z,22.23
2017-10-14T09:02:59.711Z,23.20
2017-10-14T09:05:28.630Z,23.40
2017-10-14T09:07:57.546Z,24.30
2017-10-14T09:10:26.471Z,25.27
2017-10-14T09:12:55.557Z,24.23
2017-10-14T09:15:23.951Z,26.40
2017-10-14T09:17:52.866Z,26.17
2017-10-14T09:20:21.789Z,25.63
2017-10-14T09:22:50.759Z,27.50
2017-10-14T09:25:18.325Z,28.00
2017-10-14T09:27:46.697Z,26.77
2017-10-14T09:30:14.258Z,27.10
2017-10-14T09:32:41.837Z,28.10
2017-10-14T09:35:09.438Z,25.90
2017-10-14T09:37:37.002Z,25.47
2017-10-14T09:40:05.381Z,26.80
2017-10-14T09:42:34.279Z,28.27
2017-10-14T09:45:01.849Z,28.23
2017-10-14T09:47:30.219Z,27.63
2017-10-14T09:49:59.654Z,27.43
2017-10-14T09:52:27.649Z,30.03
2017-10-14T09:54:55.333Z,29.50
2017-10-14T09:57:24.988Z,26.70
2017-10-14T09:59:53.743Z,27.97
2017-10-14T10:02:22.741Z,31.07
2017-10-14T10:04:51.694Z,29.87
2017-10-14T10:07:19.247Z,28.93
2017-10-14T10:09:48.184Z,31.00
2017-10-14T10:12:16.144Z,30.33
2017-10-14T10:14:45.195Z,29.73
2017-10-14T10:17:14.448Z,30.30
2017-10-14T10:19:43.208Z,30.30
2017-10-14T10:22:12.562Z,28.43
2017-10-14T10:24:40.918Z,30.00
2017-10-14T10:27:09.645Z,29.83
2017-10-14T10:29:37.648Z,27.87
2017-10-14T10:32:06.500Z,27.93
2017-10-14T10:34:34.472Z,27.23
2017-10-14T10:37:02.067Z,26.77
2017-10-14T10:39:29.653Z,29.93
2017-10-14T10:41:57.977Z,27.90
2017-10-14T10:44:25.634Z,26.27
2017-10-14T10:46:54.018Z,26.87
2017-10-14T10:49:22.689Z,28.53
2017-10-14T10:51:50.678Z,26.40
2017-10-14T10:54:19.039Z,24.73
2017-10-14T10:56:47.408Z,24.80
2017-10-14T10:59:37.551Z,24.53
2017-10-14T11:02:05.169Z,22.87
2017-10-14T11:04:33.533Z,24.77
2017-10-14T11:07:01.161Z,26.10
2017-10-14T11:09:29.500Z,25.30
2017-10-14T11:11:57.848Z,26.90
2017-10-14T11:14:26.457Z,25.80
2017-10-14T11:16:54.804Z,17.50
2017-10-14T11:19:22.399Z,15.40
2017-10-14T11:21:51.106Z,23.40
2017-10-14T11:24:19.541Z,22.37
2017-10-14T11:26:47.885Z,25.80
2017-10-14T11:29:23.217Z,24.90
2017-10-14T11:31:51.585Z,23.40
2017-10-14T11:34:19.570Z,21.83
2017-10-14T11:36:47.588Z,24.30
2017-10-14T11:39:15.200Z,19.70
2017-10-14T11:41:42.831Z,24.70
2017-10-14T11:44:10.812Z,23.93
2017-10-14T11:46:38.836Z,24.10
2017-10-14T11:49:07.195Z,24.93
2017-10-14T11:51:34.790Z,25.73
2017-10-14T11:54:03.130Z,24.30
2017-10-14T11:56:31.442Z,23.73
2017-10-14T11:58:59.030Z,26.07
2017-10-14T12:01:27.361Z,25.17
2017-10-14T12:03:55.715Z,24.50
2017-10-14T12:06:24.051Z,23.10
2017-10-14T12:08:53.190Z,23.53
2017-10-14T12:11:20.847Z,23.80
2017-10-14T12:13:49.201Z,23.37
2017-10-14T12:16:17.623Z,23.70
2017-10-14T12:18:45.963Z,23.60
2017-10-14T12:21:14.335Z,23.00
2017-10-14T12:23:41.938Z,23.33
2017-10-14T12:26:10.262Z,22.30
2017-10-14T12:28:59.273Z,22.40
2017-10-14T12:31:45.244Z,21.50
2017-10-14T12:36:55.564Z,21.73
2017-10-14T12:39:23.730Z,21.43
2017-10-14T12:41:51.395Z,20.97
2017-10-14T12:44:19.058Z,20.13
2017-10-14T12:46:47.227Z,22.13
2017-10-14T12:49:14.989Z,22.67
2017-10-14T12:51:43.860Z,20.00
2017-10-14T12:54:12.493Z,19.60
2017-10-14T12:56:40.194Z,20.03
2017-10-14T12:59:07.754Z,18.23
2017-10-14T13:01:35.366Z,18.93
2017-10-14T13:04:02.923Z,20.10
2017-10-14T13:06:30.470Z,18.10
2017-10-14T13:08:58.073Z,18.50
2017-10-14T13:11:25.631Z,18.03
2017-10-14T13:13:53.520Z,18.03
2017-10-14T13:16:21.090Z,16.90
2017-10-14T13:18:48.673Z,17.30
2017-10-14T13:21:16.232Z,17.03
2017-10-14T13:23:43.863Z,15.90
2017-10-14T13:26:11.455Z,14.20
2017-10-14T13:28:39.052Z,15.47
2017-10-14T13:31:06.608Z,14.50
2017-10-14T13:33:34.166Z,15.00
2017-10-14T13:36:01.745Z,14.40
2017-10-14T13:38:29.308Z,13.70
2017-10-14T13:40:56.903Z,11.53
2017-10-14T13:43:24.527Z,11.00
2017-10-14T13:45:52.127Z,14.60
2017-10-14T13:48:19.697Z,11.67
2017-10-14T13:50:47.334Z,11.27
2017-10-14T13:53:14.910Z,11.20
2017-10-14T13:55:42.476Z,11.00
2017-10-14T13:58:10.075Z,10.47
2017-10-14T14:00:37.643Z,11.30
2017-10-14T14:03:05.257Z,9.80
2017-10-14T14:05:32.850Z,10.20
2017-10-14T14:08:00.451Z,10.17
2017-10-14T14:10:28.016Z,11.10
2017-10-14T14:12:55.611Z,10.63
2017-10-14T14:15:23.185Z,9.53
2017-10-14T14:17:51.096Z,10.10
2017-10-14T14:20:19.518Z,8.53
2017-10-14T14:22:47.131Z,9.13
2017-10-14T14:25:14.733Z,9.23
2017-10-14T14:27:42.291Z,9.30
2017-10-14T14:30:09.874Z,8.00
2017-10-14T14:32:37.436Z,7.37
2017-10-14T14:35:05.021Z,7.37
2017-10-14T14:37:32.582Z,8.10
2017-10-14T14:40:00.185Z,8.20
2017-10-14T14:42:27.745Z,8.60
2017-10-14T14:44:55.423Z,7.63
2017-10-14T14:47:23.268Z,7.60
2017-10-14T14:49:50.828Z,7.50
2017-10-14T14:52:18.475Z,6.67
2017-10-14T14:54:46.061Z,7.17
2017-10-14T14:57:13.687Z,6.93
2017-10-14T14:59:41.265Z,7.53
2017-10-14T15:02:08.949Z,9.70
2017-10-14T15:04:36.525Z,7.23
2017-10-14T15:07:04.122Z,8.87
2017-10-14T15:09:32.521Z,9.17
2017-10-14T15:12:00.081Z,7.07
2017-10-14T15:14:27.679Z,11.60
2017-10-14T15:16:56.018Z,13.20
2017-10-14T15:19:23.641Z,16.20
2017-10-14T15:21:51.971Z,16.30
2017-10-14T15:24:19.567Z,16.30
2017-10-14T15:26:47.951Z,17.40
2017-10-14T15:32:06.657Z,17.10
2017-10-14T15:34:34.656Z,18.13
2017-10-14T15:37:02.286Z,16.67
2017-10-14T15:39:29.873Z,18.57
2017-10-14T15:41:57.753Z,19.33
2017-10-14T15:44:25.338Z,19.50
2017-10-14T15:46:52.947Z,19.67
2017-10-14T15:49:20.895Z,19.67
2017-10-14T15:51:48.475Z,19.53
2017-10-14T15:54:16.446Z,19.17
2017-10-14T15:56:44.092Z,20.23
2017-10-14T15:59:11.657Z,18.77
2017-10-14T16:01:39.259Z,18.87
2017-10-14T16:04:07.575Z,18.40
2017-10-14T16:06:35.133Z,19.47
2017-10-14T16:09:02.753Z,18.00
2017-10-14T16:11:30.322Z,18.80
2017-10-14T17:38:55.295Z,8.80
2017-10-14T17:41:22.970Z,8.40
2017-10-14T17:43:50.518Z,8.23
2017-10-14T17:46:18.159Z,7.90
2017-10-14T17:48:45.712Z,7.90
2017-10-14T17:51:15.786Z,8.50
2017-10-14T17:53:43.406Z,8.43
2017-10-14T17:56:11.030Z,8.90
2017-10-14T17:58:39.324Z,9.67
2017-10-14T18:01:07.674Z,10.37
2017-10-14T18:03:35.259Z,8.33
2017-10-14T18:06:02.820Z,7.27
2017-10-14T18:08:30.376Z,7.13
2017-10-14T18:10:58.000Z,7.33
2017-10-14T18:13:25.978Z,8.70
2017-10-14T18:15:53.787Z,8.97
2017-10-14T18:18:22.373Z,9.10
2017-10-14T18:20:50.087Z,10.03
2017-10-14T18:23:17.997Z,9.60
2017-10-14T18:25:45.613Z,10.50
2017-10-14T18:28:13.216Z,8.17
2017-10-14T18:30:40.823Z,10.77
2017-10-14T18:33:08.469Z,10.70
2017-10-14T18:35:36.046Z,9.80
2017-10-14T18:38:03.617Z,9.00
2017-10-14T18:43:22.019Z,8.63
2017-10-14T18:45:50.390Z,9.33
2017-10-14T18:48:18.720Z,9.40
2017-10-14T18:50:47.096Z,10.13
2017-10-14T18:53:15.990Z,11.80
2017-10-14T18:55:43.853Z,10.80
2017-10-14T18:58:11.820Z,11.57
2017-10-14T19:00:39.783Z,11.93
2017-10-14T19:03:08.925Z,11.90
2017-10-14T19:05:36.563Z,14.30
2017-10-14T19:08:05.304Z,10.90
2017-10-14T19:10:32.882Z,9.73
2017-10-14T19:13:00.498Z,9.70
2017-10-14T19:15:30.317Z,10.83
2017-10-14T19:17:58.329Z,10.17
2017-10-14T19:20:27.324Z,11.60
2017-10-14T19:22:57.087Z,13.47
2017-10-14T19:25:25.453Z,15.30
2017-10-14T19:27:54.373Z,15.77
2017-10-14T19:30:23.421Z,13.23
2017-10-14T19:32:51.407Z,12.93
2017-10-14T19:35:20.591Z,12.57
2017-10-14T19:38:06.140Z,11.20
2017-10-14T19:40:35.218Z,15.33
2017-10-14T19:43:04.182Z,14.93
2017-10-14T19:45:32.873Z,14.23
2017-10-14T19:48:01.857Z,12.73
2017-10-14T19:50:30.762Z,14.20
2017-10-14T19:52:59.446Z,13.03
2017-10-14T19:55:27.078Z,14.67
2017-10-14T19:57:54.640Z,14.50
2017-10-14T20:00:22.334Z,13.90
2017-10-14T20:02:51.275Z,15.60
2017-10-14T20:05:18.934Z,15.70
2017-10-14T20:07:47.296Z,15.87
2017-10-14T20:10:16.234Z,16.37
2017-10-14T20:12:44.987Z,16.07
2017-10-14T20:15:13.317Z,19.83
2017-10-14T20:17:40.938Z,15.00
2017-10-14T20:20:09.844Z,14.00
2017-10-14T20:22:38.867Z,13.97
2017-10-14T20:25:07.772Z,13.50
2017-10-14T20:27:37.745Z,11.47
2017-10-14T20:30:05.414Z,12.37
2017-10-14T20:32:33.766Z,10.40
2017-10-14T20:35:02.716Z,10.90
2017-10-14T20:37:30.296Z,11.30
2017-10-14T20:39:58.691Z,11.83
2017-10-14T20:42:27.019Z,10.63
2017-10-14T20:44:55.360Z,10.23
2017-10-14T20:47:22.970Z,9.80
2017-10-14T20:49:50.546Z,10.90
2017-10-14T20:52:19.026Z,10.40
2017-10-14T20:54:48.632Z,10.43
2017-10-14T20:57:16.724Z,11.10
2017-10-14T20:59:45.418Z,10.63
2017-10-14T21:02:13.067Z,10.10
2017-10-14T21:04:41.424Z,10.93
2017-10-14T21:07:08.983Z,11.07
2017-10-14T21:09:36.574Z,10.50
2017-10-14T21:12:04.126Z,10.80
2017-10-14T21:14:33.066Z,10.83
2017-10-14T21:17:01.027Z,10.97
2017-10-14T21:19:28.650Z,11.00
2017-10-14T21:21:56.219Z,11.70
2017-10-14T21:24:23.803Z,11.33
2017-10-14T21:26:52.738Z,11.37
2017-10-14T21:29:20.693Z,12.27
2017-10-14T21:31:49.071Z,12.00
2017-10-14T21:34:17.981Z,12.80
2017-10-14T21:36:46.918Z,12.70
2017-10-14T21:39:14.510Z,13.10
2017-10-14T21:41:42.705Z,11.20
2017-10-14T21:44:11.796Z,12.27
2017-10-14T21:46:40.115Z,11.23
2017-10-14T21:49:09.074Z,10.93
2017-10-14T21:51:37.794Z,11.43
2017-10-14T21:54:06.142Z,12.23
2017-10-14T21:56:35.226Z,12.97
2017-10-14T21:59:02.822Z,14.23
2017-10-14T22:01:30.388Z,14.67
2017-10-14T22:03:58.370Z,16.37
2017-10-14T22:06:27.307Z,15.13
2017-10-14T22:08:55.306Z,15.50
2017-10-14T22:11:23.832Z,16.40
2017-10-14T22:13:51.854Z,16.27
2017-10-14T22:16:20.172Z,15.30
2017-10-14T22:18:48.876Z,14.33
2017-10-14T22:21:17.821Z,13.23
2017-10-14T22:23:46.874Z,14.33
2017-10-14T22:26:14.562Z,15.43
2017-10-14T22:28:43.461Z,14.00
2017-10-14T22:31:12.514Z,13.40
2017-10-14T22:33:40.882Z,14.10
2017-10-14T22:36:09.203Z,14.20
2017-10-14T22:38:37.683Z,14.57
2017-10-14T22:41:05.239Z,14.10
2017-10-14T22:46:06.645Z,14.77
2017-10-14T22:48:34.214Z,14.23
2017-10-14T22:51:01.814Z,14.83
2017-10-14T22:53:29.379Z,16.30
2017-10-14T22:55:56.991Z,14.27
2017-10-14T22:58:24.601Z,16.17
2017-10-14T23:00:52.193Z,13.87
2017-10-14T23:03:19.975Z,13.70
2017-10-14T23:05:48.289Z,14.83
2017-10-14T23:08:15.893Z,14.37
2017-10-14T23:10:43.449Z,14.77
2017-10-14T23:13:11.901Z,13.87
2017-10-14T23:15:39.449Z,13.90
2017-10-14T23:18:07.046Z,13.47
2017-10-14T23:20:34.623Z,13.73
2017-10-14T23:23:02.227Z,13.70
2017-10-14T23:25:29.790Z,13.20
2017-10-14T23:27:57.384Z,14.63
2017-10-14T23:30:24.954Z,14.00
2017-10-14T23:32:53.278Z,14.43
2017-10-14T23:35:21.304Z,15.83
2017-10-14T23:37:48.869Z,15.33
2017-10-14T23:40:16.502Z,16.73
2017-10-14T23:42:44.104Z,17.80
2017-10-14T23:45:11.682Z,17.73
2017-10-14T23:47:40.040Z,15.90
2017-10-14T23:50:07.614Z,19.73
2017-10-14T23:52:35.216Z,19.17
2017-10-14T23:55:02.777Z,18.73
2017-10-14T23:57:30.333Z,17.33
2017-10-14T23:59:57.922Z,18.30
